createdAt,value
2022-12-18T00:01:17.589Z,100702.66
2022-12-18T00:03:45.384Z,100698.47
2022-12-18T00:06:14.802Z,100698.13
2022-12-18T00:08:42.760Z,100685.50
2022-12-18T00:11:12.834Z,100688.69
2022-12-18T00:13:40.161Z,100685.09
2022-12-18T00:16:10.594Z,100691.34
2022-12-18T00:18:38.223Z,100695.72
2022-12-18T00:21:08.530Z,100689.75
2022-12-18T00:23:37.294Z,100687.81
2022-12-18T00:26:07.203Z,100684.50
2022-12-18T00:28:34.699Z,100702.75
2022-12-18T00:31:13.378Z,100705.44
2022-12-18T00:33:40.834Z,100707.53
2022-12-18T00:36:12.519Z,100704.44
2022-12-18T00:38:39.412Z,100698.63
2022-12-18T00:41:08.290Z,100692.78
2022-12-18T00:43:35.591Z,100689.47
2022-12-18T00:46:02.901Z,100692.97
2022-12-18T00:48:29.731Z,100694.28
2022-12-18T00:50:56.415Z,100690.16
2022-12-18T00:53:23.128Z,100681.38
2022-12-18T00:55:49.760Z,100685.69
2022-12-18T00:58:17.735Z,100678.50
2022-12-18T01:00:44.996Z,100672.44
2022-12-18T01:03:14.950Z,100672.38
2022-12-18T01:05:42.861Z,100665.81
2022-12-18T01:08:09.610Z,100664.41
2022-12-18T01:10:36.309Z,100660.34
2022-12-18T01:13:03.102Z,100657.09
2022-12-18T01:15:29.758Z,100658.19
2022-12-18T01:17:56.446Z,100649.75
2022-12-18T01:20:23.177Z,100645.69
2022-12-18T01:22:49.889Z,100650.34
2022-12-18T01:25:16.642Z,100647.94
2022-12-18T01:27:43.371Z,100637.81
2022-12-18T01:30:10.538Z,100632.34
2022-12-18T01:32:37.193Z,100629.88
2022-12-18T01:35:04.563Z,100637.00
2022-12-18T01:37:31.237Z,100633.66
2022-12-18T01:39:57.905Z,100635.81
2022-12-18T01:42:24.664Z,100630.34
2022-12-18T01:44:59.258Z,100615.56
2022-12-18T01:47:25.810Z,100613.94
2022-12-18T01:49:53.638Z,100598.13
2022-12-18T01:52:22.323Z,100590.53
2022-12-18T01:54:52.349Z,100586.75
2022-12-18T01:57:19.280Z,100572.06
2022-12-18T01:59:50.994Z,100570.75
2022-12-18T02:02:18.191Z,100569.09
2022-12-18T02:04:49.349Z,100563.63
2022-12-18T02:07:42.485Z,100559.00
2022-12-18T02:10:16.593Z,100546.47
2022-12-18T02:13:04.024Z,100552.72
2022-12-18T02:16:15.827Z,100548.06
2022-12-18T02:18:48.763Z,100555.34
2022-12-18T02:21:40.315Z,100556.69
2022-12-18T02:24:25.288Z,100558.31
2022-12-18T02:26:58.096Z,100555.00
2022-12-18T02:29:33.711Z,100554.59
2022-12-18T02:32:05.641Z,100550.41
2022-12-18T02:34:36.170Z,100549.19
2022-12-18T02:37:06.935Z,100537.66
2022-12-18T02:39:35.284Z,100539.72
2022-12-18T02:42:08.705Z,100530.81
2022-12-18T02:44:47.381Z,100534.50
2022-12-18T02:47:17.867Z,100537.63
2022-12-18T02:49:44.550Z,100536.44
2022-12-18T02:52:45.349Z,100548.91
2022-12-18T02:55:30.693Z,100544.25
2022-12-18T02:57:59.630Z,100525.00
2022-12-18T03:03:06.519Z,100515.59
2022-12-18T03:05:42.731Z,100516.09
2022-12-18T03:08:16.669Z,100496.00
2022-12-18T03:11:05.108Z,100498.84
2022-12-18T03:13:37.231Z,100477.44
2022-12-18T03:16:06.237Z,100473.25
2022-12-18T03:18:38.776Z,100469.13
2022-12-18T03:21:08.377Z,100465.75
2022-12-18T03:23:43.863Z,100447.59
2022-12-18T03:26:14.045Z,100445.56
2022-12-18T03:28:50.564Z,100439.28
2022-12-18T03:31:20.194Z,100431.38
2022-12-18T03:33:56.517Z,100426.69
2022-12-18T03:36:24.946Z,100419.00
2022-12-18T03:38:52.275Z,100411.06
2022-12-18T03:41:21.867Z,100407.03
2022-12-18T03:44:09.417Z,100412.22
2022-12-18T03:46:52.177Z,100430.03
2022-12-18T03:49:27.953Z,100412.00
2022-12-18T03:52:18.837Z,100408.13
2022-12-18T03:54:47.305Z,100423.94
2022-12-18T03:57:22.356Z,100418.47
2022-12-18T03:59:54.597Z,100413.81
2022-12-18T04:02:23.837Z,100398.19
2022-12-18T04:04:54.179Z,100398.19
2022-12-18T04:07:22.419Z,100381.28
2022-12-18T04:09:52.092Z,100377.09
2022-12-18T04:12:18.798Z,100375.66
2022-12-18T04:14:45.968Z,100372.31
2022-12-18T04:17:12.649Z,100361.53
2022-12-18T04:19:39.633Z,100374.59
2022-12-18T04:22:07.755Z,100372.06
2022-12-18T04:24:34.534Z,100370.63
2022-12-18T04:27:01.185Z,100344.88
2022-12-18T04:29:30.287Z,100352.75
2022-12-18T04:31:57.122Z,100336.81
2022-12-18T04:34:23.758Z,100332.34
2022-12-18T04:36:50.550Z,100321.06
2022-12-18T04:39:20.046Z,100309.28
2022-12-18T04:41:46.686Z,100326.25
2022-12-18T04:44:13.332Z,100314.63
2022-12-18T04:46:40.162Z,100323.38
2022-12-18T04:49:06.884Z,100324.97
2022-12-18T04:51:33.519Z,100315.94
2022-12-18T04:54:00.173Z,100315.63
2022-12-18T04:56:26.776Z,100313.88
2022-12-18T04:58:53.470Z,100285.84
2022-12-18T05:01:20.478Z,100297.28
2022-12-18T05:03:47.415Z,100282.47
2022-12-18T05:06:14.257Z,100276.84
2022-12-18T05:08:43.940Z,100284.78
2022-12-18T05:11:16.591Z,100279.78
2022-12-18T05:13:44.770Z,100268.47
2022-12-18T05:16:11.870Z,100276.06
2022-12-18T05:18:38.732Z,100267.38
2022-12-18T05:21:05.803Z,100261.56
2022-12-18T05:23:35.721Z,100243.19
2022-12-18T05:26:05.482Z,100229.00
2022-12-18T05:28:34.367Z,100216.41
2022-12-18T05:31:03.372Z,100224.63
2022-12-18T05:33:32.325Z,100215.59
2022-12-18T05:36:03.762Z,100205.44
2022-12-18T05:38:31.843Z,100199.97
2022-12-18T05:40:58.718Z,100189.31
2022-12-18T05:43:28.538Z,100176.44
2022-12-18T05:45:56.346Z,100177.22
2022-12-18T05:48:23.422Z,100156.91
2022-12-18T05:50:51.737Z,100170.94
2022-12-18T05:53:20.865Z,100180.78
2022-12-18T05:55:48.428Z,100165.13
2022-12-18T05:58:16.246Z,100161.28
2022-12-18T06:00:46.793Z,100160.13
2022-12-18T06:03:14.462Z,100162.06
2022-12-18T06:05:44.073Z,100182.41
2022-12-18T06:08:11.618Z,100176.91
2022-12-18T06:10:38.775Z,100177.72
2022-12-18T06:13:06.700Z,100166.44
2022-12-18T06:15:33.950Z,100154.66
2022-12-18T06:18:02.059Z,100155.47
2022-12-18T06:20:33.615Z,100142.88
2022-12-18T06:23:00.892Z,100128.88
2022-12-18T06:25:27.602Z,100149.69
2022-12-18T06:28:02.496Z,100132.09
2022-12-18T06:30:29.099Z,100129.69
2022-12-18T06:32:56.918Z,100122.56
2022-12-18T06:35:24.376Z,100124.19
2022-12-18T06:37:51.157Z,100120.94
2022-12-18T06:40:18.017Z,100122.09
2022-12-18T06:42:44.666Z,100103.22
2022-12-18T06:45:12.458Z,100087.09
2022-12-18T06:47:39.107Z,100076.78
2022-12-18T06:50:06.616Z,100088.38
2022-12-18T06:52:34.573Z,100086.59
2022-12-18T06:55:01.634Z,100073.22
2022-12-18T06:57:28.467Z,100072.25
2022-12-18T06:59:55.507Z,100055.63
2022-12-18T07:02:22.274Z,100066.59
2022-12-18T07:04:51.834Z,100038.88
2022-12-18T07:07:19.510Z,100058.84
2022-12-18T07:09:46.131Z,100050.78
2022-12-18T07:12:12.802Z,100035.81
2022-12-18T07:14:39.433Z,100028.22
2022-12-18T07:17:06.580Z,100017.09
2022-12-18T07:19:34.023Z,100015.97
2022-12-18T07:22:01.419Z,100014.97
2022-12-18T07:24:28.581Z,100027.22
2022-12-18T07:26:55.342Z,100014.97
2022-12-18T07:29:22.042Z,100006.13
2022-12-18T07:31:48.830Z,99992.75
2022-12-18T07:34:16.334Z,99990.84
2022-12-18T07:36:43.412Z,99977.28
2022-12-18T07:39:12.426Z,99982.47
2022-12-18T07:41:42.490Z,99994.72
2022-12-18T07:44:13.641Z,99987.16
2022-12-18T07:46:40.236Z,99968.91
2022-12-18T07:49:06.968Z,99940.88
2022-12-18T07:51:33.696Z,99935.88
2022-12-18T07:54:00.281Z,99921.06
2022-12-18T07:56:28.607Z,99912.50
2022-12-18T07:58:55.652Z,99908.66
2022-12-18T08:01:22.497Z,99899.63
2022-12-18T08:03:49.918Z,99877.38
2022-12-18T08:06:19.258Z,99877.38
2022-12-18T08:08:48.377Z,99858.50
2022-12-18T08:11:15.160Z,99862.38
2022-12-18T08:13:42.277Z,99863.53
2022-12-18T08:16:09.729Z,99849.47
2022-12-18T08:18:38.131Z,99853.03
2022-12-18T08:21:17.211Z,99838.22
2022-12-18T08:23:44.394Z,99843.69
2022-12-18T08:26:14.658Z,99850.78
2022-12-18T08:28:42.362Z,99845.63
2022-12-18T08:31:09.348Z,99835.78
2022-12-18T08:33:37.652Z,99830.94
2022-12-18T08:36:05.607Z,99825.81
2022-12-18T08:38:35.561Z,99823.06
2022-12-18T08:41:10.892Z,99816.47
2022-12-18T08:43:58.065Z,99807.09
2022-12-18T08:46:27.527Z,99791.13
2022-12-18T08:48:56.295Z,99795.84
2022-12-18T08:51:23.259Z,99791.94
2022-12-18T08:53:50.446Z,99787.28
2022-12-18T08:56:17.879Z,99791.63
2022-12-18T08:58:44.947Z,99775.19
2022-12-18T09:01:13.629Z,99774.03
2022-12-18T09:03:41.426Z,99777.28
2022-12-18T09:06:09.714Z,99782.09
2022-12-18T09:08:38.103Z,99782.91
2022-12-18T09:11:05.119Z,99773.56
2022-12-18T09:13:31.810Z,99769.34
2022-12-18T09:15:59.721Z,99780.78
2022-12-18T09:18:26.428Z,99756.13
2022-12-18T09:20:53.978Z,99755.47
2022-12-18T09:23:22.038Z,99761.41
2022-12-18T09:25:49.400Z,99755.94
2022-12-18T09:28:18.620Z,99749.66
2022-12-18T09:30:48.571Z,99722.25
2022-12-18T09:33:15.841Z,99722.56
2022-12-18T09:35:44.474Z,99715.97
2022-12-18T09:38:17.235Z,99685.84
2022-12-18T09:40:56.357Z,99688.56
2022-12-18T09:43:28.311Z,99682.41
2022-12-18T09:46:01.189Z,99680.16
2022-12-18T09:48:36.890Z,99684.47
2022-12-18T09:51:12.822Z,99684.97
2022-12-18T09:53:41.432Z,99675.59
2022-12-18T09:56:17.225Z,99670.94
2022-12-18T09:58:56.308Z,99659.31
2022-12-18T10:01:24.964Z,99672.66
2022-12-18T10:03:53.065Z,99663.31
2022-12-18T10:06:37.456Z,99663.63
2022-12-18T10:09:39.886Z,99662.50
2022-12-18T10:12:22.371Z,99657.84
2022-12-18T10:15:08.356Z,99677.84
2022-12-18T10:17:58.009Z,99649.63
2022-12-18T10:20:46.403Z,99650.41
2022-12-18T10:23:15.864Z,99648.50
2022-12-18T10:26:05.409Z,99644.59
2022-12-18T10:28:34.387Z,99621.53
2022-12-18T10:31:01.292Z,99616.06
2022-12-18T10:33:33.951Z,99606.38
2022-12-18T10:36:01.357Z,99607.63
2022-12-18T10:38:32.967Z,99609.72
2022-12-18T10:41:07.231Z,99606.31
2022-12-18T10:43:37.540Z,99608.34
2022-12-18T10:46:10.550Z,99588.50
2022-12-18T10:48:40.547Z,99588.19
2022-12-18T10:51:12.844Z,99589.09
2022-12-18T10:53:43.702Z,99591.53
2022-12-18T10:56:10.660Z,99601.00
2022-12-18T10:58:40.225Z,99598.72
2022-12-18T11:01:22.141Z,99596.44
2022-12-18T11:03:51.714Z,99587.91
2022-12-18T11:06:22.781Z,99573.03
2022-12-18T11:09:13.203Z,99577.84
2022-12-18T11:11:41.224Z,99559.44
2022-12-18T11:14:19.341Z,99537.16
2022-12-18T11:17:23.933Z,99541.16
2022-12-18T11:19:40.945Z,99520.47
2022-12-18T11:22:28.844Z,99504.50
2022-12-18T11:27:53.921Z,99513.31
2022-12-18T11:30:38.908Z,99489.91
2022-12-18T11:33:18.662Z,99489.19
2022-12-18T11:35:53.537Z,99481.09
2022-12-18T11:38:43.812Z,99479.28
2022-12-18T11:41:54.968Z,99472.75
2022-12-18T11:44:33.890Z,99465.78
2022-12-18T11:47:10.561Z,99453.31
2022-12-18T11:49:37.410Z,99462.47
2022-12-18T11:52:25.324Z,99447.28
2022-12-18T11:54:54.214Z,99441.44
2022-12-18T11:57:35.957Z,99433.66
2022-12-18T12:00:21.309Z,99424.28
2022-12-18T12:03:18.264Z,99416.13
2022-12-18T12:06:17.876Z,99431.59
2022-12-18T12:09:10.564Z,99408.94
2022-12-18T12:11:49.377Z,99391.75
2022-12-18T12:14:18.746Z,99392.56
2022-12-18T12:16:45.417Z,99381.69
2022-12-18T12:19:30.603Z,99372.41
2022-12-18T12:22:31.723Z,99356.88
2022-12-18T12:25:13.513Z,99350.31
2022-12-18T12:28:07.587Z,99342.66
2022-12-18T12:30:59.366Z,99336.13
2022-12-18T12:33:45.559Z,99329.25
2022-12-18T12:36:36.363Z,99319.63
2022-12-18T12:39:10.914Z,99305.63
2022-12-18T12:41:58.287Z,99307.69
2022-12-18T12:44:35.722Z,99291.25
2022-12-18T12:47:14.804Z,99279.25
2022-12-18T12:49:48.769Z,99263.25
2022-12-18T12:52:35.913Z,99263.03
2022-12-18T12:55:11.537Z,99254.53
2022-12-18T12:57:47.041Z,99249.09
2022-12-18T13:00:25.305Z,99253.19
2022-12-18T13:03:02.570Z,99252.22
2022-12-18T13:05:39.705Z,99242.09
2022-12-18T13:08:12.619Z,99232.00
2022-12-18T13:10:41.789Z,99215.94
2022-12-18T13:13:23.798Z,99225.09
2022-12-18T13:16:07.377Z,99209.88
2022-12-18T13:18:34.673Z,99200.91
2022-12-18T13:21:03.222Z,99199.84
2022-12-18T13:23:40.048Z,99201.09
2022-12-18T13:26:07.396Z,99208.97
2022-12-18T13:28:34.339Z,99196.47
2022-12-18T13:31:02.745Z,99201.59
2022-12-18T13:33:35.754Z,99178.44
2022-12-18T13:36:32.898Z,99167.06
2022-12-18T13:39:28.668Z,99159.72
2022-12-18T13:42:05.529Z,99159.34
2022-12-18T13:44:35.958Z,99152.69
2022-12-18T13:47:27.067Z,99152.78
2022-12-18T13:49:54.307Z,99143.34
2022-12-18T13:52:27.169Z,99161.47
2022-12-18T13:54:57.272Z,99152.06
2022-12-18T13:57:31.406Z,99149.31
2022-12-18T14:00:00.630Z,99145.03
2022-12-18T14:02:29.653Z,99149.78
2022-12-18T14:04:56.958Z,99132.50
2022-12-18T14:07:33.116Z,99119.97
2022-12-18T14:10:42.213Z,99115.25
2022-12-18T14:13:11.714Z,99101.56
2022-12-18T14:15:49.042Z,99105.91
2022-12-18T14:18:15.580Z,99090.22
2022-12-18T14:20:52.501Z,99093.41
2022-12-18T14:23:42.973Z,99091.06
2022-12-18T14:26:34.182Z,99082.44
2022-12-18T14:29:18.993Z,99096.28
2022-12-18T14:31:46.206Z,99102.22
2022-12-18T14:34:20.257Z,99102.66
2022-12-18T14:36:54.909Z,99104.66
2022-12-18T14:39:21.822Z,99089.03
2022-12-18T14:41:52.906Z,99079.63
2022-12-18T14:44:19.623Z,99078.44
2022-12-18T14:46:49.344Z,99056.84
2022-12-18T14:49:28.021Z,99048.22
2022-12-18T14:52:00.678Z,99035.69
2022-12-18T14:54:29.039Z,99040.47
2022-12-18T14:57:26.141Z,99035.38
2022-12-18T14:59:53.899Z,99032.25
2022-12-18T15:02:26.661Z,99038.22
2022-12-18T15:05:12.689Z,99040.59
2022-12-18T15:07:47.252Z,99021.72
2022-12-18T15:10:18.484Z,99020.56
2022-12-18T15:12:48.218Z,99015.50
2022-12-18T15:15:45.950Z,99016.34
2022-12-18T15:18:43.062Z,99017.94
2022-12-18T15:21:12.043Z,99014.44
2022-12-18T15:23:45.155Z,99010.97
2022-12-18T15:26:15.588Z,99007.81
2022-12-18T15:28:56.823Z,99013.41
2022-12-18T15:31:24.414Z,99005.56
2022-12-18T15:33:53.156Z,99001.66
2022-12-18T15:36:26.125Z,98998.16
2022-12-18T15:38:57.890Z,99008.88
2022-12-18T15:41:35.749Z,98993.56
2022-12-18T15:44:04.296Z,98978.97
2022-12-18T15:46:32.109Z,98973.47
2022-12-18T15:49:02.264Z,98976.59
2022-12-18T15:51:39.136Z,98973.41
2022-12-18T15:54:12.281Z,98963.19
2022-12-18T15:56:57.073Z,98958.84
2022-12-18T15:59:24.770Z,98961.59
2022-12-18T16:01:53.977Z,98942.31
2022-12-18T16:04:22.742Z,98935.63
2022-12-18T16:09:37.573Z,98916.81
2022-12-18T16:12:04.886Z,98910.94
2022-12-18T16:14:33.960Z,98905.06
2022-12-18T16:17:03.173Z,98903.50
2022-12-18T16:19:30.489Z,98903.50
2022-12-18T16:21:58.959Z,98901.16
2022-12-18T16:24:28.531Z,98901.97
2022-12-18T16:26:56.972Z,98887.38
2022-12-18T16:29:27.834Z,98896.00
2022-12-18T16:31:55.791Z,98897.19
2022-12-18T16:34:28.541Z,98892.06
2022-12-18T16:37:05.731Z,98894.09
2022-12-18T16:39:35.131Z,98890.16
2022-12-18T16:42:05.984Z,98890.88
2022-12-18T16:44:34.169Z,98890.88
2022-12-18T16:47:03.203Z,98897.94
2022-12-18T16:49:30.372Z,98890.88
2022-12-18T16:51:57.120Z,98895.56
2022-12-18T16:54:24.114Z,98897.53
2022-12-18T16:56:52.153Z,98893.63
2022-12-18T16:59:19.917Z,98891.66
2022-12-18T17:01:47.582Z,98884.56
2022-12-18T17:04:15.663Z,98891.66
2022-12-18T17:06:45.440Z,98894.75
2022-12-18T17:09:16.975Z,98893.16
2022-12-18T17:11:44.594Z,98878.97
2022-12-18T17:14:15.245Z,98875.88
2022-12-18T17:16:42.777Z,98875.88
2022-12-18T17:19:16.607Z,98867.22
2022-12-18T17:21:49.847Z,98862.56
2022-12-18T17:24:17.064Z,98873.19
2022-12-18T17:26:44.612Z,98870.50
2022-12-18T17:29:17.340Z,98859.50
2022-12-18T17:31:46.483Z,98866.66
2022-12-18T17:34:14.348Z,98869.09
2022-12-18T17:36:43.186Z,98869.91
2022-12-18T17:39:18.754Z,98851.91
2022-12-18T17:41:46.188Z,98857.47
2022-12-18T17:44:13.320Z,98857.91
2022-12-18T17:46:40.334Z,98857.56
2022-12-18T17:49:07.161Z,98855.97
2022-12-18T17:51:34.091Z,98855.56
2022-12-18T17:54:00.873Z,98848.47
2022-12-18T17:56:27.710Z,98849.28
2022-12-18T17:58:54.451Z,98845.38
2022-12-18T18:01:24.489Z,98835.16
2022-12-18T18:03:53.922Z,98833.19
2022-12-18T18:06:21.001Z,98832.00
2022-12-18T18:08:48.119Z,98834.00
2022-12-18T18:11:36.366Z,98825.34
2022-12-18T18:14:05.937Z,98811.94
2022-12-18T18:16:36.403Z,98828.47
2022-12-18T18:19:06.772Z,98824.53
2022-12-18T18:21:34.683Z,98819.06
2022-12-18T18:24:03.205Z,98820.69
2022-12-18T18:26:34.523Z,98816.78
2022-12-18T18:29:03.957Z,98816.78
2022-12-18T18:31:35.685Z,98818.78
2022-12-18T18:34:08.334Z,98819.97
2022-12-18T18:36:35.019Z,98815.28
2022-12-18T18:39:02.294Z,98803.09
2022-12-18T18:41:30.603Z,98792.09
2022-12-18T18:44:00.119Z,98787.34
2022-12-18T18:46:27.089Z,98787.34
2022-12-18T18:48:55.216Z,98788.53
2022-12-18T18:51:22.596Z,98790.91
2022-12-18T18:53:50.954Z,98796.47
2022-12-18T18:59:08.068Z,98782.72
2022-12-18T19:01:35.015Z,98768.91
2022-12-18T19:04:04.614Z,98774.47
2022-12-18T19:06:31.602Z,98774.13
2022-12-18T19:09:02.616Z,98767.44
2022-12-18T19:11:47.980Z,98764.28
2022-12-18T19:14:16.390Z,98761.94
2022-12-18T19:16:45.432Z,98768.25
2022-12-18T19:19:13.469Z,98757.25
2022-12-18T19:21:40.551Z,98758.84
2022-12-18T19:24:07.826Z,98753.38
2022-12-18T19:26:37.531Z,98763.28
2022-12-18T19:29:06.481Z,98769.66
2022-12-18T19:31:35.999Z,98759.81
2022-12-18T19:34:05.006Z,98759.03
2022-12-18T19:36:33.418Z,98745.63
2022-12-18T19:39:01.645Z,98752.75
2022-12-18T19:41:31.247Z,98752.41
2022-12-18T19:44:07.411Z,98733.84
2022-12-18T19:46:35.986Z,98731.50
2022-12-18T19:49:04.558Z,98728.38
2022-12-18T19:51:32.702Z,98713.34
2022-12-18T19:54:01.678Z,98716.56
2022-12-18T19:56:34.443Z,98698.41
2022-12-18T19:59:02.852Z,98686.97
2022-12-18T20:01:30.580Z,98688.94
2022-12-18T20:03:59.001Z,98703.16
2022-12-18T20:06:36.285Z,98704.75
2022-12-18T20:09:06.954Z,98715.81
2022-12-18T20:11:39.644Z,98711.91
2022-12-18T20:14:10.208Z,98672.44
2022-12-18T20:16:37.000Z,98664.56
2022-12-18T20:19:04.944Z,98659.81
2022-12-18T20:21:31.816Z,98654.69
2022-12-18T20:24:02.261Z,98645.63
2022-12-18T20:26:29.395Z,98651.53
2022-12-18T20:28:56.592Z,98643.22
2022-12-18T20:31:24.381Z,98644.81
2022-12-18T20:33:52.203Z,98643.22
2022-12-18T20:36:24.611Z,98635.31
2022-12-18T20:38:58.127Z,98632.13
2022-12-18T20:41:31.678Z,98627.38
2022-12-18T20:44:08.493Z,98619.47
2022-12-18T20:46:48.175Z,98628.16
2022-12-18T20:49:14.777Z,98624.19
2022-12-18T20:51:41.500Z,98631.66
2022-12-18T20:54:11.774Z,98636.78
2022-12-18T20:56:38.694Z,98637.56
2022-12-18T20:59:05.355Z,98633.22
2022-12-18T21:01:33.447Z,98629.66
2022-12-18T21:04:02.160Z,98643.47
2022-12-18T21:06:28.834Z,98633.59
2022-12-18T21:08:56.108Z,98621.38
2022-12-18T21:11:41.064Z,98642.31
2022-12-18T21:14:25.536Z,98634.41
2022-12-18T21:16:55.002Z,98646.66
2022-12-18T21:19:25.178Z,98636.03
2022-12-18T21:21:56.620Z,98623.03
2022-12-18T21:24:24.043Z,98614.78
2022-12-18T21:26:51.659Z,98616.72
2022-12-18T21:29:21.041Z,98610.03
2022-12-18T21:31:48.594Z,98606.88
2022-12-18T21:34:21.467Z,98628.97
2022-12-18T21:36:48.637Z,98625.81
2022-12-18T21:39:16.285Z,98615.53
2022-12-18T21:42:02.710Z,98604.50
2022-12-18T21:44:29.681Z,98608.03
2022-12-18T21:47:02.435Z,98609.22
2022-12-18T21:49:36.162Z,98621.03
2022-12-18T21:52:02.926Z,98606.06
2022-12-18T21:54:30.094Z,98598.97
2022-12-18T21:57:05.033Z,98603.31
2022-12-18T21:59:37.761Z,98608.03
2022-12-18T22:02:13.480Z,98589.50
2022-12-18T22:04:40.984Z,98583.59
2022-12-18T22:07:08.632Z,98587.91
2022-12-18T22:09:37.712Z,98598.19
2022-12-18T22:12:05.256Z,98595.44
2022-12-18T22:14:32.463Z,98597.44
2022-12-18T22:16:59.116Z,98591.56
2022-12-18T22:19:26.724Z,98601.03
2022-12-18T22:21:54.254Z,98591.97
2022-12-18T22:24:23.473Z,98578.56
2022-12-18T22:26:52.934Z,98582.13
2022-12-18T22:29:43.565Z,98579.78
2022-12-18T22:32:16.979Z,98590.03
2022-12-18T22:34:56.933Z,98581.72
2022-12-18T22:37:26.220Z,98577.00
2022-12-18T22:39:52.822Z,98576.59
2022-12-18T22:42:19.775Z,98570.66
2022-12-18T22:44:46.423Z,98572.63
2022-12-18T22:47:15.666Z,98575.00
2022-12-18T22:49:42.323Z,98562.75
2022-12-18T22:52:09.547Z,98557.22
2022-12-18T22:54:36.427Z,98544.22
2022-12-18T22:57:03.243Z,98542.25
2022-12-18T22:59:29.951Z,98550.53
2022-12-18T23:01:59.060Z,98557.25
2022-12-18T23:04:31.987Z,98570.69
2022-12-18T23:07:07.522Z,98577.00
2022-12-18T23:09:34.634Z,98575.03
2022-12-18T23:12:01.890Z,98579.38
2022-12-18T23:14:29.212Z,98587.25
2022-12-18T23:16:56.434Z,98591.22
2022-12-18T23:19:23.821Z,98578.97
2022-12-18T23:21:51.336Z,98573.44
2022-12-18T23:24:18.018Z,98570.69
2022-12-18T23:26:44.636Z,98564.34
2022-12-18T23:29:11.236Z,98575.03
2022-12-18T23:31:39.855Z,98572.63
2022-12-18T23:34:07.666Z,98557.25
2022-12-18T23:36:43.873Z,98558.81
2022-12-18T23:39:15.616Z,98564.34
2022-12-18T23:41:55.485Z,98551.69
2022-12-18T23:44:22.198Z,98557.22
2022-12-18T23:46:48.929Z,98553.28
2022-12-18T23:49:15.728Z,98556.03
2022-12-18T23:51:42.441Z,98552.09
2022-12-18T23:54:10.749Z,98555.66
2022-12-18T23:56:37.666Z,98557.63
2022-12-18T23:59:04.490Z,98557.59
